createdAt,value
2018-05-21T00:00:55.257Z,91.10
2018-05-21T00:03:22.808Z,91.30
2018-05-21T00:05:50.362Z,91.20
2018-05-21T00:08:17.970Z,91.20
2018-05-21T00:10:45.537Z,91.20
2018-05-21T00:13:13.086Z,91.30
2018-05-21T00:15:40.684Z,91.10
2018-05-21T00:18:08.253Z,91.10
2018-05-21T00:20:35.801Z,91.20
2018-05-21T00:23:04.373Z,91.30
2018-05-21T00:25:31.937Z,91.50
2018-05-21T00:27:59.497Z,91.60
2018-05-21T00:30:27.085Z,91.70
2018-05-21T00:32:54.663Z,91.70
2018-05-21T00:35:22.229Z,91.70
2018-05-21T00:37:49.817Z,91.90
2018-05-21T00:40:17.387Z,92.00
2018-05-21T00:42:44.948Z,91.60
2018-05-21T00:45:12.549Z,91.80
2018-05-21T00:47:40.118Z,91.50
2018-05-21T00:50:07.682Z,91.50
2018-05-21T00:52:36.050Z,91.30
2018-05-21T00:55:37.218Z,91.30
2018-05-21T00:58:04.810Z,91.30
2018-05-21T01:00:32.367Z,91.30
2018-05-21T01:02:59.916Z,91.10
2018-05-21T01:05:27.543Z,91.20
2018-05-21T01:07:55.103Z,91.30
2018-05-21T01:10:22.656Z,91.30
2018-05-21T01:12:50.249Z,91.30
2018-05-21T01:15:17.808Z,91.20
2018-05-21T01:17:46.162Z,91.30
2018-05-21T01:20:13.719Z,91.30
2018-05-21T01:22:41.272Z,91.30
2018-05-21T01:25:08.842Z,91.30
2018-05-21T01:27:36.432Z,91.40
2018-05-21T01:30:03.998Z,91.60
2018-05-21T01:32:31.577Z,91.70
2018-05-21T01:34:59.174Z,91.70
2018-05-21T01:37:26.738Z,91.60
2018-05-21T01:39:54.294Z,91.30
2018-05-21T01:42:21.892Z,91.10
2018-05-21T01:44:49.445Z,91.00
2018-05-21T01:47:17.001Z,90.90
2018-05-21T01:49:44.954Z,91.00
2018-05-21T01:52:12.510Z,90.90
2018-05-21T01:54:40.063Z,90.90
2018-05-21T01:57:07.647Z,91.00
2018-05-21T01:59:35.208Z,90.90
2018-05-21T02:02:02.759Z,90.90
2018-05-21T02:04:30.353Z,91.00
2018-05-21T02:06:58.689Z,91.10
2018-05-21T02:09:26.253Z,91.00
2018-05-21T02:11:53.860Z,90.90
2018-05-21T02:14:22.191Z,91.00
2018-05-21T02:16:49.754Z,91.00
2018-05-21T02:19:17.355Z,90.90
2018-05-21T02:21:45.682Z,90.90
2018-05-21T02:24:13.232Z,90.90
2018-05-21T02:26:40.820Z,90.60
2018-05-21T02:29:08.378Z,90.60
2018-05-21T02:31:35.940Z,90.50
2018-05-21T02:34:03.551Z,90.50
2018-05-21T02:36:31.881Z,90.50
2018-05-21T02:38:59.436Z,90.50
2018-05-21T02:41:27.023Z,90.60
2018-05-21T02:43:54.598Z,90.60
2018-05-21T02:46:22.180Z,90.70
2018-05-21T02:48:49.777Z,91.00
2018-05-21T02:51:17.337Z,90.70
2018-05-21T02:53:44.901Z,90.70
2018-05-21T02:56:12.533Z,90.90
2018-05-21T02:58:40.853Z,91.10
2018-05-21T03:01:08.417Z,91.10
2018-05-21T03:03:36.054Z,91.20
2018-05-21T03:06:03.620Z,91.30
2018-05-21T03:08:31.177Z,91.30
2018-05-21T03:10:58.761Z,91.40
2018-05-21T03:13:26.326Z,91.50
2018-05-21T03:15:53.881Z,91.40
2018-05-21T03:18:21.504Z,91.40
2018-05-21T03:20:49.060Z,91.50
2018-05-21T03:23:17.487Z,91.20
2018-05-21T03:25:45.113Z,91.20
2018-05-21T03:28:12.649Z,91.20
2018-05-21T03:30:40.205Z,91.30
2018-05-21T03:33:08.604Z,91.30
2018-05-21T03:35:36.124Z,91.40
2018-05-21T03:38:03.687Z,91.40
2018-05-21T03:40:31.843Z,91.50
2018-05-21T03:42:59.397Z,91.50
2018-05-21T03:45:26.946Z,91.50
2018-05-21T03:47:54.538Z,91.60
2018-05-21T03:50:22.108Z,91.50
2018-05-21T03:52:49.668Z,91.50
2018-05-21T03:55:17.259Z,91.50
2018-05-21T03:57:44.817Z,91.20
2018-05-21T04:00:44.010Z,90.90
2018-05-21T04:03:48.457Z,90.90
2018-05-21T04:06:16.814Z,91.20
2018-05-21T04:08:44.367Z,91.20
2018-05-21T04:11:11.922Z,91.40
2018-05-21T04:13:39.512Z,91.50
2018-05-21T04:16:07.180Z,91.50
2018-05-21T04:18:35.510Z,91.70
2018-05-21T04:21:03.127Z,91.70
2018-05-21T04:23:30.682Z,91.70
2018-05-21T04:25:58.241Z,91.60
2018-05-21T04:28:25.832Z,91.70
2018-05-21T04:30:53.393Z,91.70
2018-05-21T04:33:20.955Z,91.70
2018-05-21T04:35:48.546Z,91.70
2018-05-21T04:38:16.105Z,91.70
2018-05-21T04:40:43.663Z,91.70
2018-05-21T04:43:11.262Z,91.70
2018-05-21T04:45:38.817Z,91.60
2018-05-21T04:48:06.367Z,91.60
2018-05-21T04:50:33.969Z,91.50
2018-05-21T04:53:01.534Z,91.50
2018-05-21T04:55:29.081Z,91.50
2018-05-21T04:57:57.443Z,91.50
2018-05-21T05:00:25.009Z,91.50
2018-05-21T05:02:53.321Z,91.40
2018-05-21T05:05:20.911Z,91.40
2018-05-21T05:07:51.074Z,91.40
2018-05-21T05:10:19.408Z,91.40
2018-05-21T05:12:46.994Z,91.40
2018-05-21T05:15:14.549Z,91.30
2018-05-21T05:17:42.106Z,91.40
2018-05-21T05:20:09.720Z,91.40
2018-05-21T05:22:37.278Z,91.30
2018-05-21T05:25:04.840Z,91.20
2018-05-21T05:27:32.438Z,91.10
2018-05-21T05:29:59.989Z,90.90
2018-05-21T05:32:27.561Z,90.70
2018-05-21T05:34:55.151Z,90.60
2018-05-21T05:37:22.706Z,90.40
2018-05-21T05:39:50.270Z,90.10
2018-05-21T05:42:17.884Z,89.90
2018-05-21T05:44:45.431Z,89.60
2018-05-21T05:47:12.993Z,89.30
2018-05-21T05:49:40.597Z,89.10
2018-05-21T05:52:08.161Z,89.00
2018-05-21T05:54:35.722Z,88.60
2018-05-21T05:57:03.329Z,88.40
2018-05-21T05:59:31.779Z,88.20
2018-05-21T06:01:59.367Z,88.10
2018-05-21T06:04:28.105Z,87.40
2018-05-21T06:06:55.651Z,87.40
2018-05-21T06:09:23.637Z,86.90
2018-05-21T06:11:51.761Z,86.70
2018-05-21T06:14:19.315Z,86.10
2018-05-21T06:16:46.872Z,85.90
2018-05-21T06:19:14.957Z,85.90
2018-05-21T06:21:43.288Z,85.30
2018-05-21T06:24:10.856Z,85.30
2018-05-21T06:26:39.427Z,84.90
2018-05-21T06:29:06.981Z,84.60
2018-05-21T06:31:34.538Z,84.40
2018-05-21T06:34:02.261Z,84.10
2018-05-21T06:36:29.724Z,84.00
2018-05-21T06:38:58.058Z,83.60
2018-05-21T06:41:25.714Z,83.50
2018-05-21T06:43:53.317Z,83.30
2018-05-21T06:46:20.908Z,83.20
2018-05-21T06:48:48.565Z,82.60
2018-05-21T06:51:16.134Z,82.50
2018-05-21T06:53:43.759Z,82.70
2018-05-21T06:56:11.405Z,81.80
2018-05-21T06:58:38.988Z,81.20
2018-05-21T07:01:06.822Z,81.30
2018-05-21T07:03:34.415Z,81.00
2018-05-21T07:06:01.978Z,80.60
2018-05-21T07:08:29.550Z,80.60
2018-05-21T07:10:57.926Z,78.10
2018-05-21T07:13:25.494Z,78.10
2018-05-21T07:15:53.814Z,77.60
2018-05-21T07:18:21.430Z,77.60
2018-05-21T07:20:49.749Z,77.50
2018-05-21T07:23:17.340Z,77.50
2018-05-21T07:25:45.549Z,76.80
2018-05-21T07:28:13.884Z,75.40
2018-05-21T07:30:41.480Z,75.40
2018-05-21T07:33:09.123Z,74.40
2018-05-21T07:35:36.734Z,74.60
2018-05-21T07:38:04.309Z,73.80
2018-05-21T07:40:36.545Z,73.80
2018-05-21T07:43:04.126Z,73.60
2018-05-21T07:45:31.945Z,73.80
2018-05-21T07:48:00.437Z,73.10
2018-05-21T07:50:28.160Z,72.10
2018-05-21T07:52:55.683Z,72.30
2018-05-21T07:55:24.942Z,72.80
2018-05-21T07:57:52.496Z,72.80
2018-05-21T08:00:20.092Z,72.60
2018-05-21T08:02:47.744Z,72.20
2018-05-21T08:05:15.365Z,71.80
2018-05-21T08:07:42.880Z,71.50
2018-05-21T08:10:11.246Z,71.50
2018-05-21T08:12:38.825Z,70.60
2018-05-21T08:15:06.434Z,70.50
2018-05-21T08:17:34.779Z,70.60
2018-05-21T08:20:02.387Z,70.20
2018-05-21T08:22:29.984Z,70.10
2018-05-21T08:24:58.420Z,70.00
2018-05-21T08:27:28.795Z,68.80
2018-05-21T08:29:56.391Z,68.20
2018-05-21T08:32:24.085Z,68.60
2018-05-21T08:34:51.621Z,68.90
2018-05-21T08:37:19.209Z,68.40
2018-05-21T08:39:46.874Z,68.40
2018-05-21T08:42:14.800Z,68.30
2018-05-21T08:44:42.750Z,68.20
2018-05-21T08:47:10.380Z,67.00
2018-05-21T08:49:37.993Z,66.50
2018-05-21T08:52:05.617Z,65.80
2018-05-21T08:54:33.306Z,65.40
2018-05-21T08:57:00.882Z,64.30
2018-05-21T08:59:28.465Z,64.10
2018-05-21T09:01:56.143Z,63.70
2018-05-21T09:04:23.737Z,62.00
2018-05-21T09:06:51.335Z,62.10
2018-05-21T09:09:19.740Z,62.60
2018-05-21T09:11:47.327Z,62.50
2018-05-21T09:14:14.949Z,62.10
2018-05-21T09:16:42.643Z,61.80
2018-05-21T09:19:10.219Z,61.70
2018-05-21T09:21:37.787Z,61.10
2018-05-21T09:24:05.915Z,61.20
2018-05-21T09:26:33.484Z,60.60
2018-05-21T09:29:01.058Z,59.40
2018-05-21T09:31:29.249Z,59.10
2018-05-21T09:33:56.799Z,58.60
2018-05-21T09:36:24.385Z,59.00
2018-05-21T09:38:52.044Z,59.20
2018-05-21T09:41:19.755Z,59.00
2018-05-21T09:43:47.202Z,59.00
2018-05-21T09:46:14.998Z,59.20
2018-05-21T09:48:42.615Z,59.10
2018-05-21T09:51:10.191Z,59.10
2018-05-21T09:53:37.742Z,59.30
2018-05-21T09:56:06.097Z,59.10
2018-05-21T09:58:33.664Z,59.10
2018-05-21T10:01:02.127Z,59.40
2018-05-21T10:03:29.718Z,59.20
2018-05-21T10:05:58.048Z,58.10
2018-05-21T10:08:25.744Z,58.60
2018-05-21T10:10:53.339Z,58.50
2018-05-21T10:13:20.945Z,58.80
2018-05-21T10:15:48.562Z,58.60
2018-05-21T10:18:16.186Z,58.60
2018-05-21T10:20:43.736Z,58.70
2018-05-21T10:23:11.353Z,58.50
2018-05-21T10:25:38.915Z,57.90
2018-05-21T10:28:06.496Z,57.70
2018-05-21T10:30:34.134Z,57.70
2018-05-21T10:33:02.485Z,57.70
2018-05-21T10:35:30.050Z,57.60
2018-05-21T10:37:57.684Z,57.90
2018-05-21T10:40:25.253Z,57.50
2018-05-21T10:42:52.851Z,57.40
2018-05-21T10:45:20.452Z,57.40
2018-05-21T10:47:48.031Z,57.00
2018-05-21T10:50:15.587Z,57.00
2018-05-21T10:52:43.208Z,56.70
2018-05-21T10:55:10.780Z,56.60
2018-05-21T10:57:38.447Z,56.30
2018-05-21T11:00:06.037Z,56.20
2018-05-21T11:02:33.606Z,56.20
2018-05-21T11:05:02.178Z,55.70
2018-05-21T11:07:29.802Z,54.90
2018-05-21T11:09:57.378Z,54.60
2018-05-21T11:12:24.940Z,54.50
2018-05-21T11:14:52.550Z,54.50
2018-05-21T11:17:20.107Z,54.90
2018-05-21T11:19:47.673Z,55.00
2018-05-21T11:22:15.288Z,54.70
2018-05-21T11:24:42.895Z,55.00
2018-05-21T11:27:10.426Z,54.70
2018-05-21T11:29:38.077Z,55.10
2018-05-21T11:32:08.589Z,54.80
2018-05-21T11:34:36.160Z,55.50
2018-05-21T11:37:03.820Z,55.20
2018-05-21T11:39:31.413Z,54.50
2018-05-21T11:41:58.978Z,54.20
2018-05-21T11:44:27.287Z,54.40
2018-05-21T11:46:54.910Z,53.80
2018-05-21T11:49:22.441Z,52.90
2018-05-21T11:51:50.913Z,52.90
2018-05-21T11:54:19.253Z,52.20
2018-05-21T11:56:46.895Z,52.10
2018-05-21T11:59:14.537Z,52.30
2018-05-21T12:01:42.103Z,53.00
2018-05-21T12:04:09.680Z,52.00
2018-05-21T12:06:37.294Z,51.60
2018-05-21T12:09:08.350Z,52.50
2018-05-21T12:11:35.924Z,51.90
2018-05-21T12:14:03.543Z,51.80
2018-05-21T12:16:31.131Z,51.50
2018-05-21T12:18:58.709Z,50.80
2018-05-21T12:21:26.468Z,50.60
2018-05-21T12:23:54.065Z,50.40
2018-05-21T12:26:21.646Z,49.30
2018-05-21T12:28:50.000Z,49.30
2018-05-21T12:31:17.544Z,48.70
2018-05-21T12:33:45.141Z,48.30
2018-05-21T12:36:12.743Z,48.50
2018-05-21T12:38:40.300Z,48.50
2018-05-21T12:41:07.877Z,49.30
2018-05-21T12:43:35.944Z,48.60
2018-05-21T12:46:03.510Z,48.10
2018-05-21T12:48:31.104Z,48.40
2018-05-21T12:50:58.701Z,48.50
2018-05-21T12:53:26.399Z,47.80
2018-05-21T12:55:53.954Z,47.30
2018-05-21T12:58:22.115Z,47.50
2018-05-21T13:00:50.454Z,47.00
2018-05-21T13:03:18.029Z,47.00
2018-05-21T13:05:45.670Z,44.50
2018-05-21T13:08:13.218Z,43.90
2018-05-21T13:10:40.776Z,44.00
2018-05-21T13:13:08.726Z,43.50
2018-05-21T13:15:36.281Z,42.90
2018-05-21T13:18:04.611Z,42.80
2018-05-21T13:20:32.608Z,42.70
2018-05-21T13:23:00.176Z,43.10
2018-05-21T13:25:28.509Z,42.90
2018-05-21T13:27:56.130Z,42.30
2018-05-21T13:30:24.450Z,41.30
2018-05-21T13:32:53.143Z,41.30
2018-05-21T13:35:20.792Z,41.00
2018-05-21T13:37:48.343Z,41.40
2018-05-21T13:40:15.902Z,41.50
2018-05-21T13:42:43.541Z,41.50
2018-05-21T13:45:11.102Z,42.20
2018-05-21T13:47:39.556Z,41.10
2018-05-21T13:50:07.965Z,41.00
2018-05-21T13:52:35.604Z,41.00
2018-05-21T13:55:03.849Z,40.10
2018-05-21T13:57:31.480Z,40.10
2018-05-21T13:59:59.036Z,40.20
2018-05-21T14:02:27.356Z,40.00
2018-05-21T14:04:54.999Z,40.00
2018-05-21T14:07:22.559Z,40.00
2018-05-21T14:09:50.114Z,39.70
2018-05-21T14:12:17.715Z,39.30
2018-05-21T14:14:45.273Z,39.20
2018-05-21T14:17:12.882Z,39.20
2018-05-21T14:19:40.441Z,39.20
2018-05-21T14:22:08.793Z,39.50
2018-05-21T14:24:37.303Z,39.40
2018-05-21T14:27:06.454Z,38.80
2018-05-21T14:29:34.070Z,38.70
2018-05-21T14:32:01.555Z,38.50
2018-05-21T14:34:29.195Z,38.30
2018-05-21T14:36:56.750Z,38.50
2018-05-21T14:39:24.309Z,37.60
2018-05-21T14:41:52.675Z,39.40
2018-05-21T14:44:20.271Z,39.40
2018-05-21T14:46:48.562Z,39.00
2018-05-21T14:49:16.188Z,39.00
2018-05-21T14:51:43.707Z,39.10
2018-05-21T14:54:11.257Z,38.60
2018-05-21T14:56:38.862Z,38.50
2018-05-21T14:59:07.184Z,38.60
2018-05-21T15:01:34.748Z,38.60
2018-05-21T15:04:02.440Z,39.20
2018-05-21T15:06:29.916Z,39.60
2018-05-21T15:08:57.471Z,39.60
2018-05-21T15:11:25.106Z,38.80
2018-05-21T15:13:52.664Z,38.70
2018-05-21T15:16:20.535Z,38.30
2018-05-21T15:18:48.136Z,37.70
2018-05-21T15:21:15.703Z,37.10
2018-05-21T15:23:44.024Z,36.00
2018-05-21T15:26:12.210Z,35.30
2018-05-21T15:28:39.760Z,35.80
2018-05-21T15:31:07.314Z,35.50
2018-05-21T15:33:35.593Z,35.80
2018-05-21T15:38:30.701Z,35.50
2018-05-21T15:40:58.345Z,35.70
2018-05-21T15:43:26.825Z,34.80
2018-05-21T15:45:54.547Z,34.70
2018-05-21T15:48:22.645Z,34.50
2018-05-21T15:50:50.196Z,33.80
2018-05-21T15:53:17.760Z,33.60
2018-05-21T15:55:45.363Z,33.10
2018-05-21T15:58:12.920Z,31.10
2018-05-21T16:00:40.476Z,31.60
2018-05-21T16:03:09.630Z,31.40
2018-05-21T16:05:37.197Z,31.30
2018-05-21T16:08:04.759Z,31.60
2018-05-21T16:10:32.535Z,32.00
2018-05-21T16:13:00.088Z,31.90
2018-05-21T16:15:27.649Z,32.20
2018-05-21T16:17:55.757Z,32.30
2018-05-21T16:20:23.247Z,31.70
2018-05-21T16:22:50.801Z,31.80
2018-05-21T16:25:18.453Z,31.80
2018-05-21T16:27:46.024Z,31.50
2018-05-21T16:30:13.778Z,31.30
2018-05-21T16:32:41.274Z,31.30
2018-05-21T16:35:08.873Z,32.00
2018-05-21T16:37:36.406Z,32.30
2018-05-21T16:40:04.917Z,32.10
2018-05-21T16:42:32.488Z,32.60
2018-05-21T16:45:00.915Z,32.30
2018-05-21T16:47:29.345Z,32.20
2018-05-21T16:49:56.941Z,32.00
2018-05-21T16:52:24.599Z,31.80
2018-05-21T16:54:52.250Z,32.00
2018-05-21T16:57:19.787Z,32.20
2018-05-21T16:59:47.418Z,32.70
2018-05-21T17:02:15.917Z,32.00
2018-05-21T17:04:43.491Z,32.10
2018-05-21T17:07:11.079Z,32.50
2018-05-21T17:09:39.443Z,33.10
2018-05-21T17:12:07.789Z,33.00
2018-05-21T17:14:35.342Z,32.90
2018-05-21T17:17:02.955Z,32.80
2018-05-21T17:19:30.548Z,33.00
2018-05-21T17:21:58.134Z,33.00
2018-05-21T17:24:25.716Z,33.10
2018-05-21T17:26:53.288Z,33.30
2018-05-21T17:29:20.886Z,33.20
2018-05-21T17:31:48.508Z,33.40
2018-05-21T17:34:27.965Z,33.80
2018-05-21T17:36:55.363Z,34.10
2018-05-21T17:39:22.930Z,34.00
2018-05-21T17:41:50.494Z,34.10
2018-05-21T17:44:18.473Z,34.30
2018-05-21T17:46:46.070Z,34.60
2018-05-21T17:49:13.651Z,34.90
2018-05-21T17:51:41.333Z,35.20
2018-05-21T17:54:08.864Z,35.50
2018-05-21T17:56:37.184Z,35.90
2018-05-21T17:59:04.818Z,35.90
2018-05-21T18:01:32.387Z,36.10
2018-05-21T18:03:59.951Z,36.40
2018-05-21T18:06:27.631Z,36.60
2018-05-21T18:08:55.159Z,36.90
2018-05-21T18:11:22.684Z,37.20
2018-05-21T18:13:50.324Z,37.40
2018-05-21T18:16:17.909Z,37.60
2018-05-21T18:18:45.476Z,37.90
2018-05-21T18:21:13.145Z,37.90
2018-05-21T18:23:40.712Z,38.30
2018-05-21T18:26:08.251Z,38.60
2018-05-21T18:28:36.132Z,39.00
2018-05-21T18:31:03.808Z,39.30
2018-05-21T18:33:31.386Z,39.80
2018-05-21T18:35:59.081Z,40.20
2018-05-21T18:38:26.602Z,40.50
2018-05-21T18:40:54.165Z,40.60
2018-05-21T18:43:21.792Z,41.20
2018-05-21T18:45:49.354Z,42.10
2018-05-21T18:48:16.983Z,42.90
2018-05-21T18:50:45.534Z,43.80
2018-05-21T18:53:13.859Z,45.40
2018-05-21T18:55:41.525Z,45.50
2018-05-21T18:58:09.175Z,46.40
2018-05-21T19:00:36.727Z,47.10
2018-05-21T19:03:04.301Z,47.50
2018-05-21T19:05:32.527Z,48.00
2018-05-21T19:08:00.089Z,48.40
2018-05-21T19:10:27.759Z,48.80
2018-05-21T19:12:56.818Z,49.90
2018-05-21T19:15:24.396Z,49.80
2018-05-21T19:17:52.026Z,50.20
2018-05-21T19:20:20.454Z,50.60
2018-05-21T19:22:48.049Z,50.80
2018-05-21T19:25:15.705Z,51.10
2018-05-21T19:27:43.916Z,51.70
2018-05-21T19:30:11.497Z,52.30
2018-05-21T19:32:39.075Z,52.90
2018-05-21T19:35:07.543Z,53.90
2018-05-21T19:37:35.805Z,54.50
2018-05-21T19:40:03.390Z,54.50
2018-05-21T19:42:31.063Z,54.80
2018-05-21T19:44:58.705Z,55.30
2018-05-21T19:47:26.227Z,55.30
2018-05-21T19:49:54.058Z,55.40
2018-05-21T19:52:21.686Z,55.70
2018-05-21T19:54:49.262Z,56.00
2018-05-21T19:57:17.307Z,56.40
2018-05-21T19:59:44.981Z,56.60
2018-05-21T20:02:12.552Z,57.00
2018-05-21T20:04:40.158Z,57.60
2018-05-21T20:07:07.835Z,58.50
2018-05-21T20:09:36.157Z,59.70
2018-05-21T20:12:03.791Z,59.70
2018-05-21T20:14:31.501Z,60.00
2018-05-21T20:16:59.067Z,60.50
2018-05-21T20:19:27.110Z,61.50
2018-05-21T20:21:54.660Z,62.20
2018-05-21T20:24:22.215Z,62.80
2018-05-21T20:26:50.325Z,63.30
2018-05-21T20:29:17.966Z,63.70
2018-05-21T20:31:45.676Z,64.30
2018-05-21T20:34:13.907Z,64.90
2018-05-21T20:36:41.471Z,66.40
2018-05-21T20:39:09.134Z,65.80
2018-05-21T20:41:37.820Z,66.50
2018-05-21T20:44:05.368Z,66.40
2018-05-21T20:46:32.930Z,65.90
2018-05-21T20:49:00.533Z,66.20
2018-05-21T20:51:28.991Z,67.00
2018-05-21T20:53:56.597Z,67.00
2018-05-21T20:56:25.194Z,67.40
2018-05-21T20:58:52.742Z,68.10
2018-05-21T21:01:20.340Z,68.60
2018-05-21T21:03:48.463Z,68.90
2018-05-21T21:06:15.987Z,69.60
2018-05-21T21:08:43.543Z,70.00
2018-05-21T21:11:12.094Z,70.30
2018-05-21T21:13:39.652Z,70.40
2018-05-21T21:16:08.570Z,70.60
2018-05-21T21:18:36.190Z,70.80
2018-05-21T21:21:03.758Z,71.10
2018-05-21T21:23:31.344Z,71.50
2018-05-21T21:25:59.433Z,71.80
2018-05-21T21:28:27.030Z,72.20
2018-05-21T21:30:55.379Z,73.60
2018-05-21T21:33:23.015Z,73.30
2018-05-21T21:35:50.573Z,74.60
2018-05-21T21:38:18.125Z,74.30
2018-05-21T21:40:46.141Z,74.60
2018-05-21T21:43:13.702Z,74.90
2018-05-21T21:45:41.268Z,75.00
2018-05-21T21:48:08.898Z,75.20
2018-05-21T21:50:36.458Z,76.30
2018-05-21T21:53:04.016Z,76.30
2018-05-21T21:55:32.010Z,75.80
2018-05-21T21:57:59.569Z,76.10
2018-05-21T22:00:27.137Z,76.20
2018-05-21T22:02:54.985Z,76.80
2018-05-21T22:05:22.548Z,76.20
2018-05-21T22:07:50.115Z,76.50
2018-05-21T22:10:17.711Z,75.90
2018-05-21T22:12:45.287Z,76.30
2018-05-21T22:15:12.846Z,76.40
2018-05-21T22:17:41.207Z,76.90
2018-05-21T22:20:08.763Z,76.90
2018-05-21T22:22:36.331Z,76.90
2018-05-21T22:25:03.924Z,77.90
2018-05-21T22:27:32.246Z,76.90
2018-05-21T22:29:59.807Z,76.80
2018-05-21T22:32:27.774Z,76.90
2018-05-21T22:34:55.333Z,77.00
2018-05-21T22:37:22.896Z,77.40
2018-05-21T22:39:50.492Z,77.70
2018-05-21T22:42:18.063Z,78.00
2018-05-21T22:44:45.630Z,78.40
2018-05-21T22:47:14.029Z,78.90
2018-05-21T22:49:41.555Z,78.90
2018-05-21T22:52:09.121Z,79.00
2018-05-21T22:54:37.509Z,80.00
2018-05-21T22:57:05.837Z,79.70
2018-05-21T22:59:33.393Z,79.70
2018-05-21T23:02:00.993Z,79.90
2018-05-21T23:04:28.556Z,80.20
2018-05-21T23:06:56.127Z,80.80
2018-05-21T23:09:24.479Z,80.50
2018-05-21T23:11:52.034Z,80.10
2018-05-21T23:14:19.605Z,80.20
2018-05-21T23:16:47.221Z,80.40
2018-05-21T23:19:14.792Z,80.60
2018-05-21T23:21:42.360Z,81.30
2018-05-21T23:24:09.951Z,80.70
2018-05-21T23:26:37.519Z,80.80
2018-05-21T23:29:05.094Z,81.00
2018-05-21T23:31:33.457Z,82.50
2018-05-21T23:34:01.009Z,82.10
2018-05-21T23:36:28.566Z,81.80
2018-05-21T23:38:56.184Z,81.90
2018-05-21T23:41:23.751Z,82.00
2018-05-21T23:43:51.308Z,82.30
2018-05-21T23:46:18.898Z,82.50
2018-05-21T23:48:46.462Z,82.80
2018-05-21T23:51:14.021Z,83.00
2018-05-21T23:53:41.607Z,83.10
2018-05-21T23:56:09.182Z,83.10
2018-05-21T23:58:37.519Z,84.00
